createdAt,value
2019-01-02T00:00:56.948Z,2.10
2019-01-02T00:03:26.687Z,2.13
2019-01-02T00:05:56.783Z,1.90
2019-01-02T00:08:26.372Z,2.00
2019-01-02T00:10:56.081Z,2.40
2019-01-02T00:13:25.881Z,2.20
2019-01-02T00:15:55.586Z,2.50
2019-01-02T00:18:25.836Z,3.10
2019-01-02T00:20:55.551Z,3.50
2019-01-02T00:23:25.577Z,2.37
2019-01-02T00:25:55.223Z,1.83
2019-01-02T00:28:24.990Z,2.57
2019-01-02T00:30:54.694Z,2.77
2019-01-02T00:33:24.417Z,2.50
2019-01-02T00:35:54.278Z,2.93
2019-01-02T00:38:24.020Z,3.67
2019-01-02T00:40:54.050Z,2.97
2019-01-02T00:43:23.558Z,2.53
2019-01-02T00:45:53.664Z,1.80
2019-01-02T05:06:39.623Z,3.33
2019-01-02T05:09:09.565Z,4.30
2019-01-02T05:11:39.116Z,2.93
2019-01-02T05:14:08.699Z,2.00
2019-01-02T05:16:38.448Z,2.87
2019-01-02T05:19:08.139Z,5.57
2019-01-02T05:21:37.870Z,3.43
2019-01-02T05:24:07.369Z,2.80
2019-01-02T05:26:37.050Z,4.33
2019-01-02T05:29:06.632Z,2.63
2019-01-02T05:31:36.168Z,2.60
2019-01-02T05:34:05.802Z,3.00
2019-01-02T05:36:35.562Z,3.87
2019-01-02T05:39:06.430Z,2.30
2019-01-02T05:41:35.945Z,2.60
2019-01-02T05:44:05.758Z,2.80
2019-01-02T05:46:35.306Z,2.73
2019-01-02T05:49:05.065Z,2.90
2019-01-02T05:51:34.644Z,3.27
2019-01-02T05:54:04.291Z,2.93
2019-01-02T05:56:33.981Z,2.83
2019-01-02T05:59:03.761Z,2.97
2019-01-02T06:01:33.249Z,3.03
2019-01-02T06:04:02.931Z,2.07
2019-01-02T06:06:32.627Z,2.93
2019-01-02T06:09:02.442Z,2.10
2019-01-02T06:11:31.958Z,2.53
2019-01-02T06:14:01.868Z,2.00
2019-01-02T06:16:31.530Z,3.17
2019-01-02T06:19:01.050Z,2.67
2019-01-02T06:21:30.557Z,3.83
2019-01-02T06:24:00.166Z,2.73
2019-01-02T06:26:29.760Z,3.43
2019-01-02T06:28:59.430Z,3.00
2019-01-02T06:31:28.999Z,2.93
2019-01-02T06:33:58.758Z,2.60
2019-01-02T06:36:28.390Z,3.57
2019-01-02T06:38:58.027Z,2.50
2019-01-02T06:41:27.826Z,3.00
2019-01-02T06:43:57.475Z,3.10
2019-01-02T06:46:27.090Z,3.73
2019-01-02T06:48:56.899Z,3.10
2019-01-02T06:51:26.507Z,3.83
2019-01-02T06:53:56.265Z,4.20
2019-01-02T06:56:26.026Z,2.60
2019-01-02T06:58:55.622Z,3.37
2019-01-02T07:01:25.396Z,2.43
2019-01-02T07:03:55.096Z,3.20
2019-01-02T07:06:24.807Z,3.23
2019-01-02T07:08:54.561Z,2.40
2019-01-02T07:11:24.273Z,2.40
2019-01-02T07:13:53.886Z,2.30
2019-01-02T07:16:23.465Z,2.97
2019-01-02T07:18:53.250Z,3.40
2019-01-02T07:21:22.995Z,3.23
2019-01-02T07:23:52.764Z,2.20
2019-01-02T07:26:22.516Z,2.83
2019-01-02T07:28:52.091Z,2.60
2019-01-02T07:31:21.875Z,3.10
2019-01-02T07:33:54.759Z,1.77
2019-01-02T07:36:30.397Z,3.37
2019-01-02T07:39:08.822Z,2.60
2019-01-02T07:42:00.857Z,3.27
2019-01-02T07:44:39.129Z,2.67
2019-01-02T07:47:17.227Z,4.13
2019-01-02T07:50:04.669Z,5.03
2019-01-02T07:52:48.909Z,4.37
2019-01-02T07:55:36.147Z,3.30
2019-01-02T07:58:24.857Z,2.83
2019-01-02T08:01:06.498Z,3.20
2019-01-02T08:03:41.624Z,2.50
2019-01-02T08:06:30.451Z,3.37
2019-01-02T08:09:29.969Z,2.90
2019-01-02T08:12:08.126Z,2.27
2019-01-02T08:15:03.148Z,2.77
2019-01-02T08:17:57.730Z,2.67
2019-01-02T08:20:42.129Z,1.97
2019-01-02T08:23:29.789Z,2.50
2019-01-02T08:26:11.178Z,2.27
2019-01-02T08:29:07.950Z,3.23
2019-01-02T08:31:49.428Z,3.23
2019-01-02T08:34:39.751Z,2.63
2019-01-02T08:37:46.599Z,2.00
2019-01-02T08:40:38.438Z,1.77
2019-01-02T08:43:19.634Z,2.10
2019-01-02T08:46:00.939Z,2.57
2019-01-02T08:48:36.685Z,2.87
2019-01-02T08:51:34.770Z,2.77
2019-01-02T08:54:22.530Z,2.47
2019-01-02T08:57:21.751Z,2.17
2019-01-02T09:00:02.267Z,2.63
2019-01-02T09:02:43.584Z,2.60
2019-01-02T09:05:19.236Z,2.17
2019-01-02T09:08:06.856Z,3.00
2019-01-02T09:10:47.955Z,3.37
2019-01-02T09:13:29.398Z,4.37
2019-01-02T09:16:17.111Z,3.10
2019-01-02T09:18:58.302Z,2.93
2019-01-02T09:21:51.536Z,2.57
2019-01-02T09:24:55.566Z,3.50
2019-01-02T09:27:44.258Z,3.03
2019-01-02T09:30:45.474Z,2.23
2019-01-02T09:33:21.038Z,2.90
2019-01-02T09:36:05.207Z,3.07
2019-01-02T09:38:58.486Z,2.60
2019-01-02T09:41:36.443Z,3.63
2019-01-02T09:44:20.994Z,2.50
2019-01-02T09:46:53.983Z,2.07
2019-01-02T09:49:29.282Z,2.40
2019-01-02T09:52:04.582Z,2.27
2019-01-02T09:54:48.618Z,2.13
2019-01-02T09:57:29.729Z,2.50
2019-01-02T10:00:10.983Z,2.70
2019-01-02T10:02:46.418Z,2.53
2019-01-02T10:05:24.939Z,1.90
2019-01-02T10:08:00.393Z,2.10
2019-01-02T10:10:49.506Z,2.73
2019-01-02T10:13:25.082Z,3.00
2019-01-02T10:16:15.589Z,2.40
2019-01-02T12:09:22.418Z,1.50
2019-01-02T12:11:52.061Z,1.47
2019-01-02T12:14:21.807Z,2.00
2019-01-02T12:16:52.026Z,1.93
2019-01-02T12:19:21.766Z,1.53
2019-01-02T12:21:51.654Z,1.87
2019-01-02T12:24:21.227Z,1.87
2019-01-02T12:26:51.203Z,1.10
2019-01-02T12:29:20.958Z,3.10
2019-01-02T12:31:50.516Z,1.73
2019-01-02T12:34:20.957Z,1.80
2019-01-02T12:36:50.711Z,1.60
2019-01-02T12:39:20.278Z,1.87
2019-01-02T12:41:50.019Z,1.33
2019-01-02T12:44:19.760Z,1.90
2019-01-02T12:46:49.568Z,1.70
2019-01-02T12:49:19.261Z,2.27
2019-01-02T12:51:48.899Z,1.50
2019-01-02T12:54:18.471Z,1.87
2019-01-02T12:56:48.255Z,1.20
2019-01-02T12:59:20.825Z,1.67
2019-01-02T13:01:53.753Z,2.40
2019-01-02T13:04:29.087Z,1.73
2019-01-02T13:07:22.944Z,1.30
2019-01-02T13:10:10.639Z,1.27
2019-01-02T13:12:48.663Z,1.10
2019-01-02T13:15:32.992Z,1.30
2019-01-02T13:18:11.227Z,1.53
2019-01-02T13:20:52.446Z,1.70
2019-01-02T13:23:42.898Z,1.40
2019-01-02T13:26:27.671Z,1.63
2019-01-02T13:29:06.060Z,1.57
2019-01-02T13:31:47.669Z,1.80
2019-01-02T13:34:48.345Z,1.50
2019-01-02T13:37:45.819Z,1.60
2019-01-02T13:40:33.143Z,1.87
2019-01-02T13:43:05.938Z,1.30
2019-01-02T13:45:38.659Z,1.30
2019-01-02T13:48:45.727Z,1.20
2019-01-02T13:51:15.643Z,1.03
2019-01-02T13:53:45.443Z,2.17
2019-01-02T13:56:15.178Z,1.80
2019-01-02T13:58:44.885Z,1.77
2019-01-02T14:01:14.587Z,1.53
2019-01-02T14:03:44.850Z,1.60
2019-01-02T14:06:15.706Z,1.70
2019-01-02T14:08:45.249Z,1.10
2019-01-02T14:11:14.907Z,2.00
2019-01-02T14:13:44.692Z,1.50
2019-01-02T14:16:14.384Z,2.47
2019-01-02T14:18:44.104Z,1.63
2019-01-02T14:21:13.728Z,1.40
2019-01-02T14:23:43.360Z,1.40
2019-01-02T14:26:13.051Z,1.40
2019-01-02T14:28:42.777Z,1.10
2019-01-02T14:31:14.810Z,1.40
2019-01-02T14:33:44.414Z,1.23
2019-01-02T14:36:14.047Z,1.67
2019-01-02T14:38:43.781Z,1.30
2019-01-02T14:41:13.492Z,1.47
2019-01-02T14:43:43.153Z,1.73
2019-01-02T14:46:12.986Z,1.20
2019-01-02T14:48:42.662Z,1.07
2019-01-02T14:51:12.310Z,1.13
2019-01-02T14:53:41.983Z,1.00
2019-01-02T14:56:11.779Z,1.00
2019-01-02T14:58:41.445Z,2.20
2019-01-02T15:01:11.074Z,2.10
2019-01-02T15:03:40.641Z,2.40
2019-01-02T15:06:10.658Z,1.93
2019-01-02T15:08:40.416Z,1.20
2019-01-02T15:11:10.155Z,1.90
2019-01-02T15:13:39.862Z,1.40
2019-01-02T15:16:09.464Z,1.70
2019-01-02T15:18:39.126Z,1.70
2019-01-02T15:21:08.803Z,2.07
2019-01-02T15:23:38.640Z,2.00
2019-01-02T15:26:08.269Z,1.60
2019-01-02T15:28:38.149Z,1.90
2019-01-02T15:31:07.696Z,1.80
2019-01-02T15:33:37.548Z,1.70
2019-01-02T15:36:07.123Z,1.70
2019-01-02T15:38:36.752Z,1.43
2019-01-02T15:41:06.378Z,1.70
2019-01-02T15:43:35.883Z,1.20
2019-01-02T15:46:05.541Z,2.13
2019-01-02T15:48:35.402Z,2.30
2019-01-02T15:51:05.055Z,8.50
2019-01-02T15:53:34.801Z,9.33
2019-01-02T15:56:04.685Z,6.80
2019-01-02T15:58:34.236Z,6.10
2019-01-02T16:01:04.031Z,4.50
2019-01-02T16:03:33.626Z,6.10
2019-01-02T16:06:03.234Z,4.03
2019-01-02T16:08:32.940Z,3.43
2019-01-02T16:11:02.685Z,2.80
2019-01-02T16:13:32.350Z,2.53
2019-01-02T16:16:02.166Z,3.20
2019-01-02T16:18:31.754Z,2.60
2019-01-02T16:21:01.420Z,3.93
2019-01-02T16:23:31.124Z,3.93
2019-01-02T16:26:01.015Z,4.97
2019-01-02T16:28:30.710Z,4.30
2019-01-02T16:31:01.179Z,4.20
2019-01-02T16:33:30.960Z,4.00
2019-01-02T16:36:00.683Z,3.33
2019-01-02T16:38:30.377Z,4.13
2019-01-02T16:41:00.103Z,4.87
2019-01-02T16:43:29.858Z,3.07
2019-01-02T16:45:59.675Z,2.83
2019-01-02T16:48:29.477Z,3.63
2019-01-02T16:50:59.203Z,3.10
2019-01-02T16:53:28.955Z,3.77
2019-01-02T16:55:58.814Z,3.50
2019-01-02T16:58:28.446Z,3.90
2019-01-02T17:00:58.130Z,5.57
2019-01-02T17:03:28.071Z,3.50
2019-01-02T17:05:57.755Z,4.27
2019-01-02T17:08:27.508Z,3.63
2019-01-02T17:10:57.020Z,4.50
2019-01-02T17:13:26.871Z,5.63
2019-01-02T17:15:56.544Z,6.37
2019-01-02T17:18:26.347Z,6.40
2019-01-02T17:20:56.094Z,5.37
2019-01-02T17:23:25.798Z,8.27
2019-01-02T17:25:55.866Z,7.80
2019-01-02T17:28:25.567Z,6.30
2019-01-02T17:30:55.273Z,6.03
2019-01-02T17:33:25.014Z,7.63
2019-01-02T17:35:55.142Z,8.10
2019-01-02T17:38:24.947Z,4.73
2019-01-02T17:40:54.687Z,3.47
2019-01-02T17:43:24.452Z,4.57
2019-01-02T17:45:54.117Z,3.50
2019-01-02T17:48:23.793Z,3.40
2019-01-02T17:50:53.530Z,2.67
2019-01-02T17:53:23.532Z,3.97
2019-01-02T17:55:53.269Z,2.63
2019-01-02T17:58:24.372Z,3.90
2019-01-02T18:03:22.910Z,3.70
2019-01-02T18:08:21.407Z,4.40
2019-01-02T18:20:26.127Z,5.30
2019-01-02T18:23:15.055Z,4.27
2019-01-02T18:26:04.084Z,5.10
2019-01-02T18:28:52.931Z,4.20
2019-01-02T18:31:42.036Z,4.30
2019-01-02T18:34:30.914Z,3.27
2019-01-02T18:37:19.864Z,4.13
2019-01-02T18:40:08.847Z,4.27
2019-01-02T18:42:59.479Z,4.90
2019-01-02T18:45:49.997Z,3.20
2019-01-02T18:48:59.558Z,3.87
2019-01-02T18:52:07.885Z,4.63
2019-01-02T18:54:56.755Z,5.00
2019-01-02T18:57:45.796Z,6.00
2019-01-02T19:00:34.740Z,6.23
2019-01-02T19:03:25.318Z,4.80
2019-01-02T19:09:41.474Z,4.20
2019-01-02T19:12:24.534Z,6.80
2019-01-02T19:15:13.528Z,5.77
2019-01-02T19:18:02.619Z,6.77
2019-01-02T19:20:53.151Z,5.93
2019-01-02T19:23:42.258Z,6.83
2019-01-02T19:26:31.288Z,7.47
2019-01-02T19:29:20.269Z,7.57
2019-01-02T19:32:28.721Z,6.53
2019-01-02T19:35:17.700Z,5.77
2019-01-02T19:38:06.836Z,9.33
2019-01-02T19:44:24.969Z,6.20
2019-01-02T19:47:13.888Z,6.07
2019-01-02T19:50:03.126Z,8.07
2019-01-02T19:52:52.013Z,7.10
2019-01-02T19:55:41.136Z,8.43
2019-01-02T19:58:30.153Z,6.70
2019-01-02T20:01:18.998Z,5.73
2019-01-02T20:04:08.086Z,6.53
2019-01-02T20:06:57.054Z,6.40
2019-01-02T20:09:46.085Z,5.53
2019-01-02T20:12:35.231Z,6.63
2019-01-02T20:15:24.277Z,7.53
2019-01-02T20:18:13.292Z,5.30
2019-01-02T20:24:29.599Z,6.53
2019-01-02T20:27:18.658Z,8.03
2019-01-02T20:30:28.269Z,6.93
2019-01-02T20:33:17.350Z,6.37
2019-01-02T20:36:06.371Z,7.33
2019-01-02T20:38:55.419Z,5.00
2019-01-02T20:41:46.211Z,7.00
2019-01-02T20:44:35.236Z,6.50
2019-01-02T20:47:24.156Z,7.63
2019-01-02T20:50:13.055Z,6.20
2019-01-02T20:53:02.111Z,5.03
2019-01-02T20:55:51.369Z,6.00
2019-01-02T20:58:40.392Z,4.17
2019-01-02T21:01:29.439Z,4.47
2019-01-02T21:04:18.419Z,5.27
2019-01-02T21:10:09.783Z,5.20
2019-01-02T21:12:52.573Z,5.97
2019-01-02T21:15:41.635Z,5.13
2019-01-02T21:18:30.528Z,6.60
2019-01-02T21:21:38.841Z,5.40
2019-01-02T21:24:47.209Z,5.40
2019-01-02T21:27:36.235Z,5.57
2019-01-02T21:30:25.223Z,3.93
2019-01-02T21:36:13.761Z,6.27
2019-01-02T21:39:05.327Z,6.43
2019-01-02T21:41:54.338Z,6.53
2019-01-02T21:44:43.372Z,6.40
2019-01-02T21:47:32.480Z,6.70
2019-01-02T21:50:21.503Z,7.10
2019-01-02T21:53:29.860Z,6.37
2019-01-02T21:56:18.990Z,5.67
2019-01-02T21:59:09.548Z,5.23
2019-01-02T22:05:27.935Z,6.13
2019-01-02T22:08:18.661Z,5.70
2019-01-02T22:11:07.572Z,5.10
2019-01-02T22:13:48.283Z,7.70
2019-01-02T22:16:37.207Z,5.73
2019-01-02T22:19:26.263Z,7.10
2019-01-02T22:22:34.583Z,6.77
2019-01-02T22:25:23.520Z,7.17
2019-01-02T22:28:12.347Z,7.90
2019-01-02T22:31:01.375Z,5.50
2019-01-02T22:33:52.096Z,5.97
2019-01-02T22:36:41.246Z,7.03
2019-01-02T22:39:30.240Z,7.07
2019-01-02T22:42:19.151Z,7.03
2019-01-02T22:45:27.506Z,6.20
2019-01-02T22:48:16.365Z,5.50
2019-01-02T22:50:46.048Z,7.97
2019-01-02T22:53:15.741Z,10.50
2019-01-02T22:56:04.761Z,9.90
2019-01-02T22:58:53.678Z,7.67
2019-01-02T23:08:30.314Z,5.63
2019-01-02T23:11:38.440Z,4.83
2019-01-02T23:14:40.343Z,4.90
2019-01-02T23:20:48.096Z,5.40
2019-01-02T23:23:56.295Z,5.40
2019-01-02T23:27:04.420Z,6.20
2019-01-02T23:30:12.646Z,5.90
2019-01-02T23:33:20.705Z,4.40
2019-01-02T23:36:28.732Z,4.97
2019-01-02T23:42:38.108Z,5.10
2019-01-02T23:45:46.133Z,5.73
2019-01-02T23:51:53.691Z,5.50
2019-01-02T23:55:01.910Z,5.30
2019-01-02T23:58:10.083Z,6.50
